Time;durP1;ratioP1;P1;durP2;ratioP2;P2;SDS_P1;SDS_P2;PMS_P1;PMS_P2;Temp;Humidity;BMP_temperature;BMP_pressure;BME280_temperature;BME280_humidity;BME280_pressure;Samples;Min_cycle;Max_cycle;Signal;HPM_P1;HPM_P2
2022/03/01 00:02:17;;;;;;;9.80;5.83;;;4.40;95.90;;;;;;4974952;28;20223;-66
2022/03/01 00:04:43;;;;;;;13.70;6.47;;;4.40;95.90;;;;;;4969970;28;20465;-68
2022/03/01 00:07:08;;;;;;;7.70;5.27;;;4.30;96.10;;;;;;4977030;28;20279;-66
2022/03/01 00:09:35;;;;;;;8.57;6.57;;;4.30;96.10;;;;;;4986499;28;20222;-69
2022/03/01 00:12:01;;;;;;;11.37;6.30;;;4.30;95.90;;;;;;4984867;28;20217;-68
2022/03/01 00:14:27;;;;;;;6.20;5.13;;;4.10;96.40;;;;;;4985619;28;20460;-68
2022/03/01 00:16:54;;;;;;;7.93;5.70;;;4.10;96.20;;;;;;4986644;28;20229;-72
2022/03/01 00:19:20;;;;;;;11.50;6.73;;;4.20;96.50;;;;;;4985051;28;20304;-69
2022/03/01 00:21:46;;;;;;;14.90;7.13;;;4.20;96.40;;;;;;5001640;28;20457;-67
2022/03/01 00:24:12;;;;;;;11.43;6.70;;;4.20;96.50;;;;;;4966763;28;20461;-68
2022/03/01 00:26:38;;;;;;;12.03;6.67;;;3.90;96.70;;;;;;4979686;28;20698;-67
2022/03/01 00:29:03;;;;;;;9.83;6.53;;;4.00;96.40;;;;;;4981433;28;20465;-68
2022/03/01 00:31:29;;;;;;;11.70;6.90;;;4.00;96.30;;;;;;4978430;28;20469;-69
2022/03/01 00:33:55;;;;;;;10.63;6.33;;;4.00;96.60;;;;;;4982682;28;20294;-69
2022/03/01 00:36:21;;;;;;;10.00;6.30;;;4.10;96.50;;;;;;4985595;28;20210;-67
2022/03/01 00:38:46;;;;;;;12.77;6.90;;;4.10;96.50;;;;;;4980113;28;20217;-68
2022/03/01 00:41:12;;;;;;;12.50;6.73;;;4.10;96.40;;;;;;4983118;28;20300;-68
2022/03/01 00:43:38;;;;;;;11.77;7.37;;;4.10;96.50;;;;;;4986325;28;20297;-68
2022/03/01 00:46:04;;;;;;;23.17;10.20;;;4.10;96.60;;;;;;4979964;28;20214;-67
2022/03/01 00:48:29;;;;;;;15.57;8.43;;;4.10;96.50;;;;;;4977420;28;20213;-69
2022/03/01 00:50:55;;;;;;;14.30;6.87;;;4.10;96.50;;;;;;4981682;28;20965;-68
2022/03/01 00:53:21;;;;;;;12.40;6.93;;;4.10;96.60;;;;;;4985397;28;20334;-68
2022/03/01 00:55:47;;;;;;;11.13;6.27;;;4.10;96.40;;;;;;4986908;28;21000;-67
2022/03/01 00:58:14;;;;;;;11.57;6.20;;;4.10;96.40;;;;;;4982859;28;20261;-68
2022/03/01 01:00:40;;;;;;;10.93;6.60;;;4.00;96.60;;;;;;4984114;28;20224;-68
2022/03/01 01:03:05;;;;;;;12.10;6.40;;;4.00;96.70;;;;;;4981278;28;20461;-69
2022/03/01 01:05:31;;;;;;;11.03;6.23;;;4.00;96.70;;;;;;4977998;28;20210;-67
2022/03/01 01:07:57;;;;;;;9.83;6.73;;;4.00;96.90;;;;;;4981188;28;20218;-68
2022/03/01 01:10:23;;;;;;;10.00;6.40;;;4.00;96.80;;;;;;4986137;28;20228;-67
2022/03/01 01:12:49;;;;;;;10.93;6.43;;;4.00;96.70;;;;;;4984170;28;20225;-69
2022/03/01 01:15:16;;;;;;;13.03;6.20;;;4.00;96.70;;;;;;4982479;28;20469;-67
2022/03/01 01:17:42;;;;;;;13.97;7.00;;;3.90;96.70;;;;;;4981132;28;20241;-68
2022/03/01 01:20:09;;;;;;;8.30;5.20;;;3.90;96.50;;;;;;4970018;28;20481;-68
2022/03/01 01:22:40;;;;;;;10.33;6.10;;;3.90;96.60;;;;;;4983350;28;20242;-68
2022/03/01 01:25:09;;;;;;;10.77;6.37;;;3.90;96.70;;;;;;4973377;28;20458;-67
2022/03/01 01:27:36;;;;;;;7.33;5.70;;;3.90;96.70;;;;;;4965737;28;20454;-68
2022/03/01 01:30:07;;;;;;;15.03;7.73;;;3.90;96.80;;;;;;4976499;28;20460;-67
2022/03/01 01:32:33;;;;;;;11.50;6.00;;;3.90;96.70;;;;;;4975248;28;20484;-69
2022/03/01 01:34:58;;;;;;;10.10;6.07;;;3.90;96.80;;;;;;4980136;28;20465;-67
2022/03/01 01:37:24;;;;;;;14.67;7.13;;;3.90;96.90;;;;;;4983889;28;20244;-69
2022/03/01 01:39:50;;;;;;;13.90;7.47;;;3.90;96.70;;;;;;4984212;28;20217;-67
2022/03/01 01:42:16;;;;;;;14.00;6.97;;;3.90;96.70;;;;;;4995953;28;20217;-67
2022/03/01 01:44:43;;;;;;;11.40;6.50;;;3.90;96.80;;;;;;4984731;28;20553;-69
2022/03/01 01:47:09;;;;;;;11.17;6.50;;;3.80;96.90;;;;;;4977865;28;20210;-67
2022/03/01 01:49:35;;;;;;;10.30;5.30;;;3.80;96.90;;;;;;4992359;28;20466;-69
2022/03/01 01:52:01;;;;;;;9.43;5.40;;;3.80;96.90;;;;;;4968202;28;20689;-68
2022/03/01 01:54:27;;;;;;;9.80;5.97;;;3.80;97.00;;;;;;4983345;28;20493;-67
2022/03/01 01:56:53;;;;;;;13.17;6.93;;;3.80;97.00;;;;;;4983569;28;20630;-68
2022/03/01 01:59:19;;;;;;;13.63;7.53;;;3.80;97.00;;;;;;4983644;28;20456;-67
2022/03/01 02:01:45;;;;;;;17.30;8.67;;;3.80;97.10;;;;;;4983528;28;20264;-68
2022/03/01 02:04:11;;;;;;;13.60;7.07;;;3.80;97.10;;;;;;4976650;28;20233;-71
2022/03/01 02:06:37;;;;;;;12.13;5.93;;;3.70;97.00;;;;;;4980376;28;20241;-68
2022/03/01 02:09:04;;;;;;;13.30;6.63;;;3.70;97.10;;;;;;4996357;28;20461;-68
2022/03/01 02:11:29;;;;;;;9.63;5.60;;;3.70;97.10;;;;;;4973677;28;20511;-67
2022/03/01 02:13:55;;;;;;;11.77;7.00;;;3.70;97.10;;;;;;4981818;28;20457;-67
2022/03/01 02:16:21;;;;;;;12.13;6.27;;;3.70;97.30;;;;;;4980457;28;20265;-69
2022/03/01 02:18:49;;;;;;;10.53;5.90;;;3.70;97.20;;;;;;4984870;28;20690;-68
2022/03/01 02:21:15;;;;;;;8.33;5.93;;;3.70;97.40;;;;;;4980303;28;20581;-67
2022/03/01 02:23:40;;;;;;;12.53;6.50;;;3.70;96.80;;;;;;4979610;28;20453;-70
2022/03/01 02:26:06;;;;;;;11.00;6.00;;;3.60;96.90;;;;;;4991481;28;20706;-68
2022/03/01 02:28:32;;;;;;;9.70;5.83;;;3.60;97.00;;;;;;4984879;28;20226;-68
2022/03/01 02:30:58;;;;;;;13.77;6.77;;;3.60;97.00;;;;;;4979962;28;20793;-67
2022/03/01 02:33:24;;;;;;;13.07;5.27;;;3.60;97.00;;;;;;4967248;28;20575;-68
2022/03/01 02:35:50;;;;;;;9.10;5.20;;;3.60;97.10;;;;;;4968563;28;20473;-69
2022/03/01 02:38:16;;;;;;;12.03;6.60;;;3.60;97.00;;;;;;4980006;28;20233;-68
2022/03/01 02:40:41;;;;;;;8.40;4.90;;;3.60;96.90;;;;;;4983751;28;20279;-68
2022/03/01 02:43:10;;;;;;;7.87;5.90;;;3.60;97.10;;;;;;4980064;28;20643;-67
2022/03/01 02:45:35;;;;;;;10.10;5.50;;;3.60;97.00;;;;;;4991801;28;20294;-68
2022/03/01 02:48:01;;;;;;;9.93;6.13;;;3.50;96.90;;;;;;4981585;28;20465;-69
2022/03/01 02:50:27;;;;;;;14.93;6.10;;;3.50;97.00;;;;;;4981910;28;20307;-68
2022/03/01 02:52:52;;;;;;;8.17;5.17;;;3.50;96.80;;;;;;4984839;28;20252;-67
2022/03/01 02:55:18;;;;;;;9.47;6.17;;;3.50;96.90;;;;;;4953645;28;20229;-67
2022/03/01 02:57:44;;;;;;;11.77;6.77;;;3.50;97.00;;;;;;4964618;28;20222;-68
2022/03/01 03:00:11;;;;;;;7.27;4.80;;;3.50;97.10;;;;;;4980070;28;20260;-68
2022/03/01 03:02:36;;;;;;;8.37;5.53;;;3.40;96.90;;;;;;4972229;28;20217;-67
2022/03/01 03:05:02;;;;;;;12.40;4.83;;;3.40;96.80;;;;;;4973798;28;20481;-70
2022/03/01 03:07:28;;;;;;;9.03;5.97;;;3.40;96.70;;;;;;4968538;28;20214;-68
2022/03/01 03:09:54;;;;;;;14.70;6.87;;;3.30;96.90;;;;;;4974899;28;20476;-67
2022/03/01 03:12:19;;;;;;;10.40;5.83;;;3.30;97.00;;;;;;4981793;28;20356;-68
2022/03/01 03:14:45;;;;;;;12.10;6.70;;;3.30;96.80;;;;;;4984258;28;20229;-69
2022/03/01 03:17:11;;;;;;;9.47;5.37;;;3.20;96.80;;;;;;4980944;28;20210;-70
2022/03/01 03:19:37;;;;;;;8.00;5.73;;;3.30;96.80;;;;;;4984551;28;20720;-68
2022/03/01 03:22:05;;;;;;;7.13;5.27;;;3.20;96.90;;;;;;4980814;28;20220;-67
2022/03/01 03:24:31;;;;;;;12.93;5.57;;;3.20;96.90;;;;;;4987682;28;20222;-68
2022/03/01 03:26:57;;;;;;;14.03;6.03;;;3.20;97.00;;;;;;4969746;28;20462;-67
2022/03/01 03:29:23;;;;;;;10.27;6.93;;;3.10;96.90;;;;;;4981893;28;20460;-67
2022/03/01 03:31:49;;;;;;;12.77;5.43;;;3.10;96.90;;;;;;4975847;28;20225;-67
2022/03/01 03:34:14;;;;;;;9.93;5.67;;;3.10;96.90;;;;;;4981524;28;20222;-68
2022/03/01 03:36:42;;;;;;;8.30;5.43;;;3.00;96.90;;;;;;4967626;28;20464;-67
2022/03/01 03:39:10;;;;;;;8.97;6.57;;;3.10;96.90;;;;;;4984370;28;20233;-67
2022/03/01 03:41:36;;;;;;;10.33;6.13;;;3.10;97.00;;;;;;4988000;28;20492;-68
2022/03/01 03:44:03;;;;;;;12.13;6.40;;;3.10;97.00;;;;;;4981440;28;20845;-69
2022/03/01 03:46:29;;;;;;;14.03;6.37;;;3.10;96.80;;;;;;4987660;28;20453;-70
2022/03/01 03:48:55;;;;;;;12.30;5.80;;;3.10;97.00;;;;;;4984250;28;20464;-67
2022/03/01 03:51:21;;;;;;;15.67;6.60;;;3.10;96.90;;;;;;4982520;28;20229;-68
2022/03/01 03:53:47;;;;;;;16.37;6.10;;;3.10;96.90;;;;;;4982089;28;20453;-68
2022/03/01 03:56:13;;;;;;;8.63;5.83;;;3.10;96.90;;;;;;4983472;28;20255;-67
2022/03/01 03:58:39;;;;;;;9.93;5.40;;;3.10;96.90;;;;;;4987544;28;21005;-67
2022/03/01 04:01:05;;;;;;;10.70;5.80;;;3.00;96.90;;;;;;4982226;28;20305;-67
2022/03/01 04:03:31;;;;;;;9.73;5.40;;;3.00;97.00;;;;;;4981596;28;20875;-67
2022/03/01 04:05:58;;;;;;;17.43;6.17;;;3.00;96.80;;;;;;4982820;28;20256;-68
2022/03/01 04:08:24;;;;;;;7.53;5.70;;;3.00;96.90;;;;;;4982325;28;20481;-67
2022/03/01 04:10:49;;;;;;;7.63;4.50;;;3.00;96.70;;;;;;4982193;28;20309;-68
2022/03/01 04:13:15;;;;;;;8.57;5.37;;;3.00;96.60;;;;;;4982856;28;20214;-67
2022/03/01 04:15:41;;;;;;;9.07;6.13;;;2.90;96.70;;;;;;4986854;28;20240;-69
2022/03/01 04:18:07;;;;;;;7.67;5.30;;;2.90;96.80;;;;;;4982852;28;20465;-67
2022/03/01 04:20:33;;;;;;;9.17;5.87;;;2.90;96.90;;;;;;4986432;28;20221;-68
2022/03/01 04:22:58;;;;;;;7.87;5.63;;;2.90;96.80;;;;;;4981988;28;20702;-69
2022/03/01 04:25:24;;;;;;;10.43;5.40;;;2.90;96.90;;;;;;4986354;28;20523;-68
2022/03/01 04:27:50;;;;;;;10.90;5.93;;;2.90;96.90;;;;;;4971958;28;20223;-68
2022/03/01 04:30:16;;;;;;;6.87;5.00;;;2.80;96.90;;;;;;4972280;28;20368;-65
2022/03/01 04:32:43;;;;;;;8.33;5.30;;;2.80;97.00;;;;;;4984784;28;20214;-70
2022/03/01 04:35:10;;;;;;;12.10;6.10;;;2.80;96.90;;;;;;4981176;28;20537;-69
2022/03/01 04:37:38;;;;;;;8.43;4.40;;;2.80;96.90;;;;;;4986432;28;20464;-68
2022/03/01 04:40:05;;;;;;;12.90;6.50;;;2.70;96.60;;;;;;4982378;28;20468;-68
2022/03/01 04:42:31;;;;;;;11.03;6.67;;;2.70;96.60;;;;;;4984806;28;20548;-68
2022/03/01 04:44:57;;;;;;;10.60;5.77;;;2.70;96.70;;;;;;4981316;28;20471;-69
2022/03/01 04:47:23;;;;;;;9.00;5.60;;;2.60;96.50;;;;;;4983849;28;20489;-68
2022/03/01 04:49:49;;;;;;;10.53;5.77;;;2.60;96.70;;;;;;4980805;28;20554;-67
2022/03/01 04:52:15;;;;;;;9.00;5.10;;;2.60;96.80;;;;;;4973021;28;20222;-68
2022/03/01 04:54:40;;;;;;;7.20;5.03;;;2.60;96.90;;;;;;4974366;28;20230;-67
2022/03/01 04:57:06;;;;;;;7.87;5.67;;;2.60;96.80;;;;;;4981172;28;20214;-67
2022/03/01 04:59:32;;;;;;;10.33;4.90;;;2.60;96.90;;;;;;4983770;28;20213;-68
2022/03/01 05:01:58;;;;;;;8.23;5.00;;;2.60;96.80;;;;;;4982343;28;20232;-69
2022/03/01 05:04:24;;;;;;;7.50;4.50;;;2.60;96.80;;;;;;4983838;28;20547;-70
2022/03/01 05:06:49;;;;;;;10.50;5.87;;;2.60;96.80;;;;;;4978981;28;20312;-67
2022/03/01 05:09:15;;;;;;;7.00;4.93;;;2.60;96.90;;;;;;4987915;28;20218;-66
2022/03/01 05:11:41;;;;;;;10.37;5.93;;;2.50;96.80;;;;;;4976108;28;20320;-66
2022/03/01 05:14:07;;;;;;;10.70;6.00;;;2.50;96.90;;;;;;4964371;28;20725;-68
2022/03/01 05:16:33;;;;;;;13.27;6.00;;;2.50;96.90;;;;;;4983719;28;20464;-67
2022/03/01 05:18:59;;;;;;;10.63;5.80;;;2.50;96.80;;;;;;4980694;28;20218;-67
2022/03/01 05:21:25;;;;;;;12.13;4.80;;;2.50;96.90;;;;;;4983472;28;20449;-67
2022/03/01 05:23:50;;;;;;;9.83;5.17;;;2.50;96.80;;;;;;4983195;28;20218;-68
2022/03/01 05:26:16;;;;;;;10.47;5.03;;;2.40;96.70;;;;;;4975343;28;20238;-67
2022/03/01 05:28:42;;;;;;;12.30;6.07;;;2.40;96.70;;;;;;4979880;28;20210;-67
2022/03/01 05:31:08;;;;;;;12.13;5.53;;;2.40;96.80;;;;;;4974324;28;20225;-67
2022/03/01 05:33:33;;;;;;;8.00;5.53;;;2.40;96.90;;;;;;4977893;28;20520;-67
2022/03/01 05:35:59;;;;;;;11.07;4.90;;;2.40;96.80;;;;;;4980767;28;20246;-67
2022/03/01 05:38:25;;;;;;;11.70;5.00;;;2.40;96.90;;;;;;4982948;28;20214;-68
2022/03/01 05:40:51;;;;;;;11.30;5.83;;;2.40;96.90;;;;;;4978187;28;20221;-68
2022/03/01 05:43:17;;;;;;;8.20;4.67;;;2.40;96.90;;;;;;4977407;28;20459;-68
2022/03/01 05:45:42;;;;;;;10.23;6.80;;;2.30;96.80;;;;;;4980124;28;20226;-68
2022/03/01 05:48:08;;;;;;;10.57;4.43;;;2.30;96.90;;;;;;4974434;28;20280;-67
2022/03/01 05:50:34;;;;;;;12.13;5.50;;;2.30;96.90;;;;;;4964251;28;20222;-67
2022/03/01 05:53:00;;;;;;;7.33;4.50;;;2.30;96.70;;;;;;4977115;28;20598;-68
2022/03/01 05:55:25;;;;;;;10.13;5.67;;;2.30;96.80;;;;;;4979329;28;20313;-66
2022/03/01 05:57:51;;;;;;;12.63;6.63;;;2.30;96.70;;;;;;4978098;28;20306;-66
2022/03/01 06:00:18;;;;;;;14.10;5.87;;;2.30;96.70;;;;;;4960091;28;20241;-64
2022/03/01 06:02:45;;;;;;;11.43;7.07;;;2.20;96.60;;;;;;4982536;28;20245;-67
2022/03/01 06:05:17;;;;;;;10.23;4.73;;;2.30;96.70;;;;;;4978203;28;20891;-64
2022/03/01 06:07:43;;;;;;;9.20;5.50;;;2.20;96.40;;;;;;4985404;28;20472;-65
2022/03/01 06:10:09;;;;;;;8.23;4.60;;;2.10;96.40;;;;;;4975958;28;20838;-64
2022/03/01 06:12:35;;;;;;;10.23;5.20;;;2.10;96.40;;;;;;4977105;28;20461;-65
2022/03/01 06:15:01;;;;;;;11.53;5.67;;;2.10;96.40;;;;;;4981900;28;20473;-65
2022/03/01 06:17:28;;;;;;;10.60;6.00;;;2.10;96.60;;;;;;4982566;28;20768;-65
2022/03/01 06:19:54;;;;;;;17.20;6.70;;;2.10;96.70;;;;;;4979753;28;20474;-67
2022/03/01 06:22:20;;;;;;;17.00;5.70;;;2.10;96.70;;;;;;4966674;28;20457;-67
2022/03/01 06:24:47;;;;;;;12.10;6.20;;;2.10;96.70;;;;;;4999812;28;20457;-66
2022/03/01 06:27:12;;;;;;;12.63;6.37;;;2.10;96.70;;;;;;4969354;28;20466;-69
2022/03/01 06:29:38;;;;;;;16.73;7.40;;;2.10;96.80;;;;;;4977155;28;20464;-67
2022/03/01 06:32:05;;;;;;;9.30;6.20;;;2.10;96.60;;;;;;4975639;28;20241;-68
2022/03/01 06:34:31;;;;;;;10.90;6.00;;;2.10;96.70;;;;;;4976974;28;20230;-70
2022/03/01 06:36:57;;;;;;;12.33;6.63;;;2.10;96.90;;;;;;4974753;28;20466;-70
2022/03/01 06:39:23;;;;;;;11.70;5.83;;;2.00;96.70;;;;;;4973480;28;20819;-69
2022/03/01 06:41:50;;;;;;;13.00;6.60;;;2.00;96.90;;;;;;4974247;28;20454;-69
2022/03/01 06:44:16;;;;;;;10.30;6.20;;;2.00;96.90;;;;;;4972214;28;20242;-68
2022/03/01 06:46:42;;;;;;;10.90;5.77;;;2.00;96.80;;;;;;4976311;28;20531;-68
2022/03/01 06:49:08;;;;;;;9.10;5.80;;;2.00;96.90;;;;;;4972507;28;20449;-67
2022/03/01 06:51:34;;;;;;;15.20;6.40;;;2.00;96.90;;;;;;4978384;28;20214;-69
2022/03/01 06:54:00;;;;;;;11.40;5.70;;;2.00;97.00;;;;;;4974489;28;20225;-69
2022/03/01 06:56:26;;;;;;;13.30;5.40;;;2.00;97.00;;;;;;4988649;28;20230;-69
2022/03/01 06:58:53;;;;;;;11.70;6.70;;;2.00;97.00;;;;;;4970206;28;20557;-70
2022/03/01 07:01:19;;;;;;;10.90;5.97;;;2.00;97.10;;;;;;4979097;28;20472;-66
2022/03/01 07:03:45;;;;;;;10.03;5.23;;;2.00;97.10;;;;;;4977275;28;21039;-67
2022/03/01 07:06:11;;;;;;;11.93;6.37;;;2.00;97.30;;;;;;4976063;28;20457;-68
2022/03/01 07:08:37;;;;;;;8.30;4.93;;;2.00;97.30;;;;;;4990039;28;20223;-67
2022/03/01 07:11:03;;;;;;;9.57;5.70;;;2.00;97.30;;;;;;4976475;28;20464;-68
2022/03/01 07:13:29;;;;;;;11.93;6.90;;;2.10;97.30;;;;;;4974490;28;20218;-68
2022/03/01 07:15:54;;;;;;;10.53;5.80;;;2.10;97.40;;;;;;4978347;28;20257;-70
2022/03/01 07:18:20;;;;;;;16.30;6.10;;;2.00;97.30;;;;;;4983199;28;20625;-67
2022/03/01 07:20:46;;;;;;;9.53;4.90;;;2.10;97.50;;;;;;4976898;28;20313;-67
2022/03/01 07:23:11;;;;;;;9.30;6.27;;;2.10;97.40;;;;;;4972779;28;20214;-68
2022/03/01 07:25:37;;;;;;;10.57;5.87;;;2.10;97.50;;;;;;4995883;28;20249;-68
2022/03/01 07:28:04;;;;;;;13.60;5.70;;;2.10;97.50;;;;;;4972969;28;20233;-68
2022/03/01 07:30:30;;;;;;;17.93;5.80;;;2.10;97.50;;;;;;4980338;28;20471;-68
2022/03/01 07:32:57;;;;;;;11.60;6.83;;;2.10;97.70;;;;;;4977120;28;20472;-67
2022/03/01 07:35:23;;;;;;;13.63;6.83;;;2.10;97.80;;;;;;4972373;28;20469;-69
2022/03/01 07:37:50;;;;;;;10.83;6.60;;;2.10;97.90;;;;;;4983209;28;20481;-67
2022/03/01 07:40:17;;;;;;;10.27;5.37;;;2.20;98.00;;;;;;4979869;28;20469;-68
2022/03/01 07:42:44;;;;;;;9.07;5.33;;;2.20;98.20;;;;;;4981598;28;20483;-67
2022/03/01 07:45:10;;;;;;;8.80;5.37;;;2.20;98.20;;;;;;4976862;28;20481;-68
2022/03/01 07:47:36;;;;;;;11.57;5.93;;;2.20;98.30;;;;;;4992541;28;20457;-68
2022/03/01 07:50:03;;;;;;;11.47;5.90;;;2.30;98.30;;;;;;4973384;28;20873;-68
2022/03/01 07:52:29;;;;;;;14.60;5.80;;;2.30;98.50;;;;;;4973878;28;20511;-67
2022/03/01 07:54:54;;;;;;;12.57;5.87;;;2.30;98.40;;;;;;4988879;28;20485;-67
2022/03/01 07:57:20;;;;;;;11.03;6.30;;;2.40;98.60;;;;;;4978968;28;20311;-69
2022/03/01 07:59:46;;;;;;;15.80;5.93;;;2.40;98.60;;;;;;4981663;28;20222;-67
2022/03/01 08:02:12;;;;;;;11.40;5.87;;;2.40;98.80;;;;;;4977162;28;20587;-66
2022/03/01 08:04:41;;;;;;;12.67;5.83;;;2.50;98.60;;;;;;4972664;28;20285;-66
2022/03/01 08:07:08;;;;;;;11.17;5.10;;;2.50;98.80;;;;;;4962004;28;20631;-68
2022/03/01 08:09:35;;;;;;;11.23;6.03;;;2.50;98.60;;;;;;4980430;28;20500;-68
2022/03/01 08:12:02;;;;;;;12.70;6.60;;;2.60;99.30;;;;;;4979892;28;20461;-69
2022/03/01 08:14:30;;;;;;;11.07;5.87;;;2.60;99.20;;;;;;4979840;28;20473;-67
2022/03/01 08:16:56;;;;;;;11.30;6.00;;;2.70;99.20;;;;;;4977003;28;20465;-67
2022/03/01 08:19:22;;;;;;;9.60;5.97;;;2.70;99.40;;;;;;4974634;28;20464;-67
2022/03/01 08:21:48;;;;;;;11.63;6.63;;;2.80;99.40;;;;;;4980574;28;20492;-69
2022/03/01 08:24:14;;;;;;;10.73;5.67;;;2.80;99.40;;;;;;4971564;28;22435;-68
2022/03/01 08:26:39;;;;;;;10.60;6.47;;;2.90;99.80;;;;;;4979552;28;20224;-69
2022/03/01 08:29:05;;;;;;;11.27;6.13;;;3.00;99.90;;;;;;4977372;28;20229;-67
2022/03/01 08:31:31;;;;;;;14.67;6.90;;;3.00;99.60;;;;;;4980752;28;20229;-69
2022/03/01 08:33:59;;;;;;;8.97;5.37;;;3.10;99.70;;;;;;4972731;28;20305;-69
2022/03/01 08:36:25;;;;;;;12.97;5.80;;;3.10;99.80;;;;;;4975843;28;20234;-69
2022/03/01 08:38:51;;;;;;;10.40;6.20;;;3.20;99.90;;;;;;4976047;28;21027;-67
2022/03/01 08:41:16;;;;;;;13.40;5.40;;;3.20;99.70;;;;;;4973723;28;20461;-67
2022/03/01 08:43:42;;;;;;;10.33;6.70;;;3.20;99.70;;;;;;4980921;28;20353;-67
2022/03/01 08:46:12;;;;;;;7.50;4.87;;;3.30;99.70;;;;;;4974068;28;20664;-67
2022/03/01 08:48:39;;;;;;;15.60;6.53;;;3.30;99.60;;;;;;4967093;28;20799;-70
2022/03/01 08:51:05;;;;;;;17.37;7.23;;;3.40;99.50;;;;;;4973523;28;20484;-70
2022/03/01 08:53:32;;;;;;;12.33;5.87;;;3.40;99.50;;;;;;4979511;28;20504;-71
2022/03/01 08:55:59;;;;;;;15.90;5.90;;;3.50;99.40;;;;;;4968470;28;20512;-69
2022/03/01 08:58:24;;;;;;;12.23;6.00;;;3.50;99.30;;;;;;4978696;28;20497;-69
2022/03/01 09:00:51;;;;;;;9.13;5.87;;;3.60;99.60;;;;;;4977665;28;20512;-67
2022/03/01 09:03:17;;;;;;;10.37;5.80;;;3.70;99.70;;;;;;4980029;28;20229;-68
2022/03/01 09:05:43;;;;;;;12.87;6.93;;;3.70;99.40;;;;;;4979885;28;20466;-68
2022/03/01 09:08:12;;;;;;;15.67;6.40;;;3.80;99.10;;;;;;4972692;28;20552;-67
2022/03/01 09:10:39;;;;;;;9.80;5.40;;;3.70;98.90;;;;;;4977952;28;20231;-69
2022/03/01 09:13:05;;;;;;;13.30;7.63;;;3.80;99.00;;;;;;4975819;28;20500;-69
2022/03/01 09:15:32;;;;;;;9.40;5.80;;;3.80;98.70;;;;;;4979749;28;20472;-68
2022/03/01 09:17:59;;;;;;;13.57;6.57;;;3.80;99.10;;;;;;4975757;28;20489;-70
2022/03/01 09:20:26;;;;;;;10.80;5.87;;;3.90;99.20;;;;;;4977769;28;20514;-70
2022/03/01 09:22:53;;;;;;;8.40;5.50;;;4.00;98.90;;;;;;4978382;28;20461;-68
2022/03/01 09:25:19;;;;;;;13.50;7.47;;;4.00;98.50;;;;;;4975199;28;21231;-67
2022/03/01 09:27:45;;;;;;;9.87;6.07;;;4.00;98.70;;;;;;4979731;28;20457;-73
2022/03/01 09:30:11;;;;;;;10.20;6.30;;;4.00;98.80;;;;;;4978053;28;20229;-71
2022/03/01 09:32:36;;;;;;;11.00;5.63;;;4.00;98.50;;;;;;4979726;28;20229;-70
2022/03/01 09:35:02;;;;;;;12.00;6.63;;;4.10;98.90;;;;;;4976847;28;20225;-70
2022/03/01 09:37:31;;;;;;;8.27;6.20;;;4.10;98.60;;;;;;4975512;28;20226;-69
2022/03/01 09:40:03;;;;;;;13.30;6.27;;;4.20;98.80;;;;;;4972298;28;20461;-72
2022/03/01 09:42:29;;;;;;;13.13;6.00;;;4.20;98.70;;;;;;4972677;28;20484;-71
2022/03/01 09:44:55;;;;;;;14.90;6.50;;;4.20;98.90;;;;;;4976971;28;21037;-71
2022/03/01 09:47:21;;;;;;;12.90;6.77;;;4.30;99.20;;;;;;4978158;28;20494;-68
2022/03/01 09:49:48;;;;;;;8.97;5.20;;;4.30;98.50;;;;;;4977237;28;20257;-72
2022/03/01 09:52:15;;;;;;;12.00;6.53;;;4.30;98.20;;;;;;4973986;28;20461;-69
2022/03/01 09:54:42;;;;;;;12.83;6.77;;;4.30;98.80;;;;;;4980122;28;20480;-72
2022/03/01 09:57:12;;;;;;;17.30;7.67;;;4.30;98.70;;;;;;4969417;28;20567;-70
2022/03/01 09:59:38;;;;;;;11.90;6.17;;;4.30;98.80;;;;;;4974794;28;20539;-69
2022/03/01 10:02:04;;;;;;;10.07;6.70;;;4.40;98.50;;;;;;4969313;28;20548;-70
2022/03/01 10:04:29;;;;;;;11.13;6.17;;;4.40;98.80;;;;;;4972973;28;20230;-70
2022/03/01 10:06:55;;;;;;;10.43;6.70;;;4.50;98.70;;;;;;4953373;28;20218;-71
2022/03/01 10:09:24;;;;;;;10.30;7.30;;;4.50;98.70;;;;;;4977299;28;20226;-70
2022/03/01 10:11:51;;;;;;;12.30;5.87;;;4.60;98.60;;;;;;4976425;28;20230;-69
2022/03/01 10:14:31;;;;;;;11.60;6.37;;;4.60;98.30;;;;;;4977060;28;20457;-70
2022/03/01 10:16:57;;;;;;;11.13;6.00;;;4.60;98.50;;;;;;4966402;28;20453;-70
2022/03/01 10:19:23;;;;;;;11.17;7.00;;;4.60;98.20;;;;;;4974178;28;20454;-70
2022/03/01 10:21:56;;;;;;;12.60;6.97;;;4.60;97.90;;;;;;4976354;28;20516;-69
2022/03/01 10:24:22;;;;;;;12.13;7.00;;;4.70;98.10;;;;;;4972583;28;20485;-72
2022/03/01 10:26:49;;;;;;;12.50;5.70;;;4.70;98.40;;;;;;4969608;28;20453;-70
2022/03/01 10:29:15;;;;;;;7.77;5.50;;;4.80;98.70;;;;;;4973064;28;20279;-69
2022/03/01 10:31:42;;;;;;;15.30;6.77;;;4.90;98.70;;;;;;4972805;28;20520;-69
2022/03/01 10:34:13;;;;;;;11.90;6.97;;;5.00;98.70;;;;;;4977751;28;20465;-69
2022/03/01 10:36:47;;;;;;;12.53;7.20;;;5.10;98.50;;;;;;4978527;28;20500;-70
2022/03/01 10:39:14;;;;;;;14.80;6.30;;;5.20;98.50;;;;;;4970593;28;20475;-71
2022/03/01 10:41:43;;;;;;;11.43;5.77;;;5.30;98.60;;;;;;4977421;28;20457;-72
2022/03/01 10:44:20;;;;;;;15.53;6.60;;;5.40;98.60;;;;;;4971326;28;20454;-70
2022/03/01 10:46:54;;;;;;;10.63;5.07;;;5.50;98.70;;;;;;4974428;28;20823;-69
2022/03/01 10:49:28;;;;;;;11.47;5.90;;;5.60;98.90;;;;;;4958123;28;20453;-72
2022/03/01 10:51:56;;;;;;;12.20;6.73;;;5.80;98.70;;;;;;4978801;28;20524;-72
2022/03/01 10:54:28;;;;;;;9.87;5.50;;;5.90;98.50;;;;;;4986024;28;20586;-70
2022/03/01 10:56:55;;;;;;;16.57;5.83;;;5.90;98.10;;;;;;4987254;28;20560;-70
2022/03/01 10:59:29;;;;;;;11.93;6.93;;;5.90;98.00;;;;;;4975694;28;20536;-70
2022/03/01 11:01:56;;;;;;;13.77;7.40;;;5.90;98.40;;;;;;4971387;28;21000;-71
2022/03/01 11:04:24;;;;;;;14.00;7.67;;;6.00;97.60;;;;;;4985664;28;20537;-70
2022/03/01 11:06:51;;;;;;;12.93;7.10;;;6.00;97.80;;;;;;4986157;28;20485;-70
2022/03/01 11:09:17;;;;;;;12.50;6.70;;;6.00;97.50;;;;;;4979669;28;20539;-70
2022/03/01 11:11:44;;;;;;;12.63;6.77;;;6.00;96.80;;;;;;4953634;28;21065;-70
2022/03/01 11:14:14;;;;;;;12.07;7.83;;;6.00;96.30;;;;;;4972065;28;20451;-70
2022/03/01 11:17:17;;;;;;;14.30;7.20;;;6.00;97.50;;;;;;4966513;28;20469;-71
2022/03/01 11:19:42;;;;;;;11.63;6.30;;;6.00;96.60;;;;;;4975352;28;20457;-71
2022/03/01 11:22:26;;;;;;;11.43;7.27;;;6.20;97.80;;;;;;4974451;28;21061;-71
2022/03/01 11:24:52;;;;;;;11.70;5.97;;;6.40;97.60;;;;;;4977673;28;20257;-70
2022/03/01 11:27:21;;;;;;;9.17;5.63;;;6.60;97.60;;;;;;4989229;28;20828;-72
2022/03/01 11:29:46;;;;;;;10.13;5.83;;;6.70;97.20;;;;;;4974837;28;20460;-71
2022/03/01 11:32:15;;;;;;;12.20;7.10;;;6.80;97.20;;;;;;4966539;28;20450;-71
2022/03/01 11:34:41;;;;;;;13.10;7.23;;;6.80;97.20;;;;;;4979587;28;20485;-73
2022/03/01 11:37:17;;;;;;;10.17;6.53;;;6.80;96.90;;;;;;4976681;28;20500;-72
2022/03/01 11:39:42;;;;;;;12.27;7.67;;;6.80;97.30;;;;;;4980864;28;20845;-72
2022/03/01 11:42:17;;;;;;;13.00;7.50;;;6.80;97.40;;;;;;4965551;28;20454;-69
2022/03/01 11:44:50;;;;;;;21.47;9.00;;;6.90;97.30;;;;;;4971975;28;20229;-74
2022/03/01 11:47:29;;;;;;;15.70;8.83;;;6.90;97.10;;;;;;4990326;28;20890;-71
2022/03/01 11:49:56;;;;;;;16.17;8.00;;;7.10;96.10;;;;;;4974614;28;20468;-71
2022/03/01 11:52:25;;;;;;;17.67;8.47;;;7.20;95.80;;;;;;4971882;28;20541;-70
2022/03/01 11:54:53;;;;;;;29.07;14.47;;;7.20;96.20;;;;;;4973814;28;20508;-71
2022/03/01 11:57:25;;;;;;;29.03;12.73;;;7.20;95.80;;;;;;4968010;28;20457;-71
2022/03/01 11:59:53;;;;;;;25.53;11.57;;;7.30;96.20;;;;;;4978968;28;20468;-70
2022/03/01 12:02:19;;;;;;;15.03;8.07;;;7.30;95.80;;;;;;4979101;28;20481;-71
2022/03/01 12:04:51;;;;;;;9.63;6.90;;;7.30;95.70;;;;;;4978951;28;20981;-70
2022/03/01 12:07:25;;;;;;;10.33;7.23;;;7.40;95.60;;;;;;4985622;28;20289;-70
2022/03/01 12:10:03;;;;;;;12.80;6.77;;;7.40;95.50;;;;;;4981509;28;21051;-70
2022/03/01 12:12:37;;;;;;;8.30;6.70;;;7.40;95.60;;;;;;4976979;28;20459;-71
2022/03/01 12:15:05;;;;;;;12.10;7.70;;;7.50;95.70;;;;;;4977266;28;20535;-70
2022/03/01 12:17:40;;;;;;;16.03;7.80;;;7.50;95.30;;;;;;4962407;28;20509;-71
2022/03/01 12:20:09;;;;;;;11.17;7.17;;;7.60;94.90;;;;;;4971227;28;20456;-70
2022/03/01 12:22:35;;;;;;;10.50;6.30;;;7.60;95.40;;;;;;4975704;28;20470;-71
2022/03/01 12:25:00;;;;;;;10.43;6.53;;;7.50;94.90;;;;;;4976231;28;20520;-74
2022/03/01 12:27:30;;;;;;;15.20;8.00;;;7.60;95.20;;;;;;4978721;28;20233;-70
2022/03/01 12:30:01;;;;;;;10.97;6.70;;;7.60;94.90;;;;;;4976871;28;20230;-70
2022/03/01 12:32:26;;;;;;;10.30;5.90;;;7.60;94.90;;;;;;4986112;28;20462;-71
2022/03/01 12:34:52;;;;;;;11.97;7.40;;;7.70;95.40;;;;;;4978065;28;20769;-69
2022/03/01 12:37:18;;;;;;;11.03;6.50;;;7.70;95.30;;;;;;4975377;28;20213;-70
2022/03/01 12:39:46;;;;;;;7.90;5.90;;;7.60;94.90;;;;;;4979827;28;20589;-70
2022/03/01 12:42:11;;;;;;;10.57;5.10;;;7.60;94.80;;;;;;4968607;28;20527;-72
2022/03/01 12:44:37;;;;;;;9.80;6.30;;;7.70;94.90;;;;;;4977954;28;20942;-70
2022/03/01 12:47:06;;;;;;;10.23;5.73;;;7.90;95.00;;;;;;4986438;28;20214;-71
2022/03/01 12:49:35;;;;;;;12.80;6.73;;;8.20;94.40;;;;;;4979886;28;20240;-71